Time;durP1;ratioP1;P1;durP2;ratioP2;P2;SDS_P1;SDS_P2;PMS_P1;PMS_P2;Temp;Humidity;BMP_temperature;BMP_pressure;BME280_temperature;BME280_humidity;BME280_pressure;Samples;Min_cycle;Max_cycle;Signal;HPM_P1;HPM_P2
2023/03/15 00:01:25;;;;;;;4.78;1.33;;;;;;;2.41;97.10;101177.34;4890492;29;20028;-63
2023/03/15 00:03:53;;;;;;;4.20;1.27;;;;;;;2.46;96.66;101180.22;4889076;29;20025;-63
2023/03/15 00:06:19;;;;;;;4.75;1.40;;;;;;;2.50;96.69;101174.47;4889747;29;20420;-63
2023/03/15 00:08:46;;;;;;;4.32;1.30;;;;;;;2.51;97.65;101178.81;4890203;29;20482;-63
2023/03/15 00:11:13;;;;;;;3.30;1.30;;;;;;;2.54;97.49;101181.56;4888799;29;20055;-63
2023/03/15 00:13:39;;;;;;;4.32;1.52;;;;;;;2.56;96.62;101173.94;4889095;29;20123;-63
2023/03/15 00:16:04;;;;;;;4.65;1.50;;;;;;;2.58;96.46;101175.81;4890704;29;20111;-63
2023/03/15 00:18:30;;;;;;;4.13;1.50;;;;;;;2.63;97.07;101165.81;4891260;29;20122;-63
2023/03/15 00:20:56;;;;;;;3.15;1.40;;;;;;;2.68;96.72;101163.50;4890029;29;20029;-63
2023/03/15 00:23:21;;;;;;;4.20;1.48;;;;;;;2.70;95.92;101164.50;4890053;29;20036;-63
2023/03/15 00:25:48;;;;;;;3.15;1.40;;;;;;;2.69;96.69;101165.28;4893669;29;20416;-63
2023/03/15 00:28:14;;;;;;;4.45;1.60;;;;;;;2.70;96.60;101174.81;4893416;29;20045;-63
2023/03/15 00:30:40;;;;;;;3.67;1.58;;;;;;;2.67;96.42;101170.34;4893641;29;20039;-63
2023/03/15 00:33:05;;;;;;;3.63;1.50;;;;;;;2.64;96.52;101174.44;4893919;29;20032;-63
2023/03/15 00:35:34;;;;;;;4.35;1.63;;;;;;;2.66;96.94;101183.13;4894483;29;20472;-63
2023/03/15 00:37:59;;;;;;;3.33;1.42;;;;;;;2.68;96.46;101178.94;4892357;29;20037;-63
2023/03/15 00:40:25;;;;;;;6.55;1.70;;;;;;;2.68;96.76;101186.66;4894337;29;20032;-63
2023/03/15 00:42:51;;;;;;;5.00;1.98;;;;;;;2.68;96.46;101182.44;4876237;29;20048;-63
2023/03/15 00:45:18;;;;;;;3.75;1.60;;;;;;;2.67;96.60;101182.34;4893853;29;20026;-63
2023/03/15 00:47:43;;;;;;;6.32;1.90;;;;;;;2.68;96.78;101176.38;4892909;29;20036;-63
2023/03/15 00:50:09;;;;;;;4.57;2.20;;;;;;;2.70;96.89;101174.81;4893209;29;20063;-63
2023/03/15 00:52:36;;;;;;;5.07;1.75;;;;;;;2.72;97.41;101173.19;4893961;29;20072;-63
2023/03/15 00:55:01;;;;;;;5.47;1.90;;;;;;;2.73;97.18;101174.97;4894319;29;20499;-63
2023/03/15 00:57:27;;;;;;;4.30;1.90;;;;;;;2.75;97.46;101181.09;4894016;29;20040;-62
2023/03/15 00:59:52;;;;;;;4.43;1.80;;;;;;;2.76;97.25;101186.34;4892116;29;20048;-63
2023/03/15 01:02:20;;;;;;;4.70;1.80;;;;;;;2.77;97.48;101176.94;4893264;29;20040;-63
2023/03/15 01:04:47;;;;;;;5.10;2.08;;;;;;;2.79;97.50;101175.34;4893250;29;20091;-63
2023/03/15 01:07:12;;;;;;;5.55;1.90;;;;;;;2.78;97.78;101179.63;4893316;29;21528;-63
2023/03/15 01:09:37;;;;;;;4.40;1.67;;;;;;;2.79;97.52;101177.91;4892583;29;20337;-63
2023/03/15 01:12:03;;;;;;;8.85;1.92;;;;;;;2.79;98.03;101177.91;4892367;29;20039;-63
2023/03/15 01:14:28;;;;;;;5.85;1.70;;;;;;;2.79;97.82;101183.06;4893338;29;20071;-63
2023/03/15 01:16:54;;;;;;;4.72;1.67;;;;;;;2.77;98.08;101180.41;4893791;29;20037;-63
2023/03/15 01:19:19;;;;;;;5.28;1.98;;;;;;;2.77;98.22;101180.41;4893360;29;20075;-63
2023/03/15 01:21:46;;;;;;;4.97;1.73;;;;;;;2.78;98.12;101195.06;4892167;29;20056;-63
2023/03/15 01:24:13;;;;;;;6.40;2.40;;;;;;;2.78;98.41;101196.72;4892171;29;20031;-63
2023/03/15 01:26:39;;;;;;;5.90;2.88;;;;;;;2.77;98.88;101207.84;4893083;29;20576;-63
2023/03/15 01:29:05;;;;;;;15.07;3.65;;;;;;;2.73;98.96;101206.75;4893116;29;20040;-63
2023/03/15 01:31:31;;;;;;;8.63;3.80;;;;;;;2.72;99.16;101207.56;4892150;29;20311;-63
2023/03/15 01:33:57;;;;;;;10.82;4.60;;;;;;;2.72;99.46;101209.22;4892945;29;20172;-63
2023/03/15 01:36:23;;;;;;;9.10;4.75;;;;;;;2.74;99.78;101208.53;4891215;29;20040;-63
2023/03/15 01:38:48;;;;;;;11.23;5.90;;;;;;;2.73;99.53;101211.00;4891840;29;20106;-63
2023/03/15 01:41:15;;;;;;;13.27;6.10;;;;;;;2.78;99.97;101209.59;4892882;29;20057;-63
2023/03/15 01:43:46;;;;;;;12.38;6.88;;;;;;;2.75;99.79;101209.41;4890753;29;20091;-63
2023/03/15 01:46:24;;;;;;;13.93;7.40;;;;;;;2.70;100.00;101215.97;4893022;29;20119;-63
2023/03/15 01:48:59;;;;;;;15.48;8.35;;;;;;;2.66;100.00;101224.28;4891616;29;20074;-63
2023/03/15 01:51:33;;;;;;;16.55;9.00;;;;;;;2.61;100.00;101217.16;4892538;29;20071;-63
2023/03/15 01:54:02;;;;;;;16.10;9.20;;;;;;;2.55;100.00;101216.81;4874992;29;20032;-63
2023/03/15 01:56:30;;;;;;;16.10;10.00;;;;;;;2.52;100.00;101219.19;4892473;29;20104;-63
2023/03/15 01:58:58;;;;;;;15.68;9.57;;;;;;;2.50;100.00;101227.59;4892757;29;20527;-63
2023/03/15 02:01:24;;;;;;;16.05;9.98;;;;;;;2.49;100.00;101226.72;4892228;29;20036;-63
2023/03/15 02:03:58;;;;;;;18.35;9.85;;;;;;;2.50;100.00;101231.03;4890465;29;20514;-63
2023/03/15 02:06:24;;;;;;;18.48;10.55;;;;;;;2.52;100.00;101237.19;4891192;29;20049;-63
2023/03/15 02:08:58;;;;;;;16.65;10.15;;;;;;;2.51;100.00;101237.97;4892263;29;20496;-63
2023/03/15 02:11:25;;;;;;;19.35;10.57;;;;;;;2.50;100.00;101238.75;4892387;29;20040;-63
2023/03/15 02:13:53;;;;;;;18.77;10.52;;;;;;;2.51;100.00;101245.69;4891005;29;20119;-63
2023/03/15 02:16:20;;;;;;;19.65;10.77;;;;;;;2.52;100.00;101244.91;4890533;29;20532;-63
2023/03/15 02:18:46;;;;;;;21.25;11.18;;;;;;;2.52;100.00;101250.06;4891907;29;20056;-63
2023/03/15 02:21:17;;;;;;;21.15;12.20;;;;;;;2.51;100.00;101255.97;4892255;29;20032;-63
2023/03/15 02:23:46;;;;;;;23.70;12.32;;;;;;;2.47;100.00;101256.56;4891814;29;20028;-63
2023/03/15 02:26:40;;;;;;;22.60;12.25;;;;;;;2.45;100.00;101258.19;4890898;29;20056;-63
2023/03/15 02:29:06;;;;;;;22.42;12.00;;;;;;;2.43;100.00;101250.38;4891335;29;20036;-63
2023/03/15 02:31:36;;;;;;;20.55;12.10;;;;;;;2.42;100.00;101255.41;4890819;29;20377;-63
2023/03/15 02:34:04;;;;;;;21.48;12.27;;;;;;;2.39;100.00;101266.41;4891531;29;20040;-63
2023/03/15 02:36:30;;;;;;;20.95;11.55;;;;;;;2.38;100.00;101253.44;4891298;29;20520;-63
2023/03/15 02:38:56;;;;;;;21.33;11.90;;;;;;;2.39;100.00;101261.25;4891850;29;20485;-63
2023/03/15 02:41:31;;;;;;;21.98;12.00;;;;;;;2.39;100.00;101256.09;4891037;29;20028;-63
2023/03/15 02:44:03;;;;;;;21.80;11.98;;;;;;;2.41;100.00;101259.66;4891694;29;20044;-63
2023/03/15 02:46:29;;;;;;;21.48;11.43;;;;;;;2.43;100.00;101263.22;4891535;29;20040;-63
2023/03/15 02:48:55;;;;;;;22.42;12.38;;;;;;;2.46;100.00;101266.78;4892013;29;20506;-63
2023/03/15 02:51:23;;;;;;;22.58;11.95;;;;;;;2.47;100.00;101266.00;4889957;29;20033;-63
2023/03/15 02:53:49;;;;;;;21.30;12.23;;;;;;;2.47;100.00;101264.28;4892022;29;20032;-63
2023/03/15 02:56:15;;;;;;;22.52;12.25;;;;;;;2.49;100.00;101266.97;4890739;29;20036;-63
2023/03/15 02:58:44;;;;;;;23.42;11.57;;;;;;;2.49;100.00;101272.09;4891231;29;20032;-63
2023/03/15 03:01:12;;;;;;;22.17;12.02;;;;;;;2.50;100.00;101277.34;4890991;29;20480;-63
2023/03/15 03:03:37;;;;;;;21.80;11.00;;;;;;;2.52;100.00;101283.50;4889986;29;20032;-63
2023/03/15 03:06:03;;;;;;;18.38;9.52;;;;;;;2.51;100.00;101286.84;4890515;29;20083;-63
2023/03/15 03:08:28;;;;;;;16.88;8.52;;;;;;;2.49;100.00;101285.88;4890535;29;20040;-63
2023/03/15 03:10:53;;;;;;;17.67;8.77;;;;;;;2.47;100.00;101297.72;4890679;29;20033;-63
2023/03/15 03:13:19;;;;;;;14.98;7.85;;;;;;;2.45;100.00;101304.47;4890852;29;20055;-63
2023/03/15 03:15:44;;;;;;;17.40;8.73;;;;;;;2.40;100.00;101306.75;4891355;29;20032;-63
2023/03/15 03:18:10;;;;;;;17.73;8.25;;;;;;;2.37;100.00;101313.38;4889326;29;20528;-63
2023/03/15 03:20:36;;;;;;;17.83;8.20;;;;;;;2.33;100.00;101317.44;4889486;29;20052;-63
2023/03/15 03:23:04;;;;;;;17.08;8.55;;;;;;;2.31;100.00;101324.16;4891439;29;20036;-63
2023/03/15 03:25:30;;;;;;;15.85;8.65;;;;;;;2.26;100.00;101321.28;4891622;29;20030;-63
2023/03/15 03:27:57;;;;;;;16.38;8.85;;;;;;;2.25;99.79;101334.91;4891249;29;20040;-63
2023/03/15 03:30:23;;;;;;;16.00;8.60;;;;;;;2.23;99.57;101336.50;4891445;29;20170;-63
2023/03/15 03:32:48;;;;;;;16.63;8.45;;;;;;;2.18;99.34;101337.88;4890567;29;20117;-63
2023/03/15 03:35:14;;;;;;;13.75;7.82;;;;;;;2.14;99.62;101329.88;4890332;29;20040;-63
2023/03/15 03:37:39;;;;;;;15.85;8.10;;;;;;;2.08;99.81;101338.06;4891030;29;20484;-63
2023/03/15 03:40:07;;;;;;;14.27;8.35;;;;;;;2.04;99.80;101341.22;4873577;29;20037;-63
2023/03/15 03:42:32;;;;;;;15.70;7.75;;;;;;;2.02;99.74;101345.38;4889159;29;20025;-63
2023/03/15 03:44:58;;;;;;;14.38;8.18;;;;;;;2.00;99.43;101358.13;4874089;29;20548;-63
2023/03/15 03:47:23;;;;;;;14.18;7.40;;;;;;;1.98;99.67;101358.81;4890555;29;20036;-63
2023/03/15 03:49:48;;;;;;;13.88;7.00;;;;;;;1.94;99.23;101356.84;4889524;29;20500;-63
2023/03/15 03:52:14;;;;;;;13.15;7.45;;;;;;;1.90;100.00;101359.19;4891138;29;20505;-63
2023/03/15 03:54:41;;;;;;;14.77;7.70;;;;;;;1.88;99.52;101363.34;4891099;29;20036;-63
2023/03/15 03:57:07;;;;;;;14.73;7.65;;;;;;;1.89;99.79;101357.41;4891471;29;20092;-63
2023/03/15 03:59:32;;;;;;;13.55;7.55;;;;;;;1.91;99.16;101360.06;4889851;29;20408;-63
2023/03/15 04:01:57;;;;;;;14.57;7.65;;;;;;;1.95;99.12;101364.63;4894074;29;20100;-63
2023/03/15 04:04:25;;;;;;;14.07;6.97;;;;;;;1.95;99.50;101372.34;4894406;29;20039;-63
2023/03/15 04:06:50;;;;;;;15.23;7.75;;;;;;;1.97;98.95;101375.03;4894311;29;20500;-63
2023/03/15 04:09:17;;;;;;;17.02;8.30;;;;;;;1.92;98.94;101378.16;4894476;29;20032;-63
2023/03/15 04:11:42;;;;;;;16.23;8.20;;;;;;;1.91;98.65;101378.97;4877120;29;20020;-63
2023/03/15 04:14:13;;;;;;;15.88;7.97;;;;;;;1.90;98.63;101387.47;4891969;29;20626;-63
2023/03/15 04:16:38;;;;;;;14.57;7.75;;;;;;;1.89;98.29;101401.09;4893862;29;20120;-63
2023/03/15 04:19:04;;;;;;;16.10;8.40;;;;;;;1.87;98.96;101391.53;4894555;29;20032;-63
2023/03/15 04:21:30;;;;;;;18.25;8.27;;;;;;;1.84;98.55;101399.91;4891958;29;20025;-63
2023/03/15 04:24:00;;;;;;;16.40;8.32;;;;;;;1.79;98.41;101408.97;4893967;29;20064;-63
2023/03/15 04:26:27;;;;;;;15.63;8.02;;;;;;;1.79;98.56;101413.22;4894372;29;20519;-63
2023/03/15 04:28:57;;;;;;;15.80;7.88;;;;;;;1.80;98.20;101422.72;4893959;29;20035;-63
2023/03/15 04:31:25;;;;;;;18.30;8.88;;;;;;;1.78;98.05;101419.13;4892200;29;20115;-63
2023/03/15 04:33:54;;;;;;;17.58;8.85;;;;;;;1.76;98.32;101424.19;4894659;29;20024;-63
2023/03/15 04:36:22;;;;;;;16.33;8.10;;;;;;;1.74;97.87;101431.78;4893951;29;20032;-63
2023/03/15 04:38:48;;;;;;;15.93;8.05;;;;;;;1.70;98.99;101429.78;4892003;29;20037;-63
2023/03/15 04:41:15;;;;;;;15.93;8.32;;;;;;;1.70;98.67;101429.78;4892553;29;20040;-63
2023/03/15 04:43:41;;;;;;;17.35;8.40;;;;;;;1.71;98.30;101436.72;4893672;29;20036;-63
2023/03/15 04:46:07;;;;;;;19.35;8.43;;;;;;;1.71;98.46;101433.25;4893111;29;20033;-63
2023/03/15 04:48:32;;;;;;;16.08;8.32;;;;;;;1.73;98.00;101444.53;4891922;29;20029;-63
2023/03/15 04:50:58;;;;;;;14.90;7.45;;;;;;;1.71;97.46;101436.72;4893028;29;20063;-63
2023/03/15 04:53:23;;;;;;;15.93;8.05;;;;;;;1.71;97.74;101441.84;4893529;29;20111;-63
2023/03/15 04:55:48;;;;;;;17.23;8.18;;;;;;;1.69;97.10;101443.41;4893207;29;20040;-63
2023/03/15 04:58:14;;;;;;;15.38;7.53;;;;;;;1.67;97.55;101451.81;4893637;29;20082;-63
2023/03/15 05:00:39;;;;;;;15.57;7.05;;;;;;;1.65;97.52;101450.81;4893679;29;20068;-63
2023/03/15 05:03:04;;;;;;;13.90;7.30;;;;;;;1.59;97.00;101446.13;4892791;29;20111;-63
2023/03/15 05:05:31;;;;;;;16.10;7.55;;;;;;;1.53;97.37;101456.84;4891095;29;20055;-63
2023/03/15 05:07:56;;;;;;;15.13;7.82;;;;;;;1.48;97.20;101458.22;4893112;29;20045;-63
2023/03/15 05:10:22;;;;;;;15.15;7.20;;;;;;;1.43;97.85;101459.56;4892196;29;20036;-63
2023/03/15 05:12:47;;;;;;;15.05;7.15;;;;;;;1.41;97.83;101461.16;4891103;29;20617;-63
2023/03/15 05:15:12;;;;;;;16.20;7.28;;;;;;;1.38;98.36;101471.22;4893154;29;20032;-63
2023/03/15 05:17:38;;;;;;;14.75;6.85;;;;;;;1.39;98.31;101470.41;4893085;29;20037;-63
2023/03/15 05:20:11;;;;;;;15.95;8.05;;;;;;;1.41;98.11;101475.69;4893018;29;20033;-63
2023/03/15 05:22:37;;;;;;;15.43;7.57;;;;;;;1.40;98.76;101472.19;4892230;29;20485;-63
2023/03/15 05:25:03;;;;;;;15.40;7.80;;;;;;;1.39;98.22;101475.53;4891584;29;20029;-63
2023/03/15 05:27:28;;;;;;;12.98;6.50;;;;;;;1.41;98.33;101475.69;4893260;29;20028;-63
2023/03/15 05:29:53;;;;;;;13.60;6.90;;;;;;;1.41;98.03;101481.69;4892649;29;20036;-63
2023/03/15 05:32:25;;;;;;;15.13;7.32;;;;;;;1.41;98.46;101481.69;4892760;29;20047;-63
2023/03/15 05:34:55;;;;;;;14.55;7.28;;;;;;;1.42;98.33;101487.72;4893619;29;20036;-63
2023/03/15 05:37:22;;;;;;;15.60;7.00;;;;;;;1.40;98.21;101487.59;4891634;29;20031;-63
2023/03/15 05:39:47;;;;;;;14.90;7.00;;;;;;;1.39;98.30;101490.94;4892783;29;20508;-63
2023/03/15 05:42:13;;;;;;;15.30;7.35;;;;;;;1.39;97.95;101491.84;4892843;29;20056;-63
2023/03/15 05:44:38;;;;;;;15.10;7.63;;;;;;;1.38;97.81;101496.88;4892342;29;20029;-63
2023/03/15 05:47:03;;;;;;;16.55;8.13;;;;;;;1.37;97.42;101489.97;4891514;29;20084;-63
2023/03/15 05:49:29;;;;;;;15.95;7.53;;;;;;;1.35;96.69;101500.13;4892271;29;20048;-63
2023/03/15 05:51:55;;;;;;;15.32;7.68;;;;;;;1.33;97.41;101500.78;4910133;23;20474;-95
2023/03/15 05:54:20;;;;;;;15.00;7.32;;;;;;;1.33;97.16;101499.13;4898083;29;20035;-95
2023/03/15 05:56:45;;;;;;;14.95;8.07;;;;;;;1.33;96.78;101505.94;4899601;29;20028;-95
2023/03/15 05:59:10;;;;;;;16.58;7.13;;;;;;;1.31;96.81;101508.38;4915844;29;20043;-94
2023/03/15 06:01:36;;;;;;;14.88;7.75;;;;;;;1.32;96.31;101514.44;4915115;29;21497;-94
2023/03/15 06:04:01;;;;;;;15.40;8.15;;;;;;;1.31;96.80;101512.63;4914236;29;20032;-94
2023/03/15 06:06:26;;;;;;;16.50;8.32;;;;;;;1.30;97.25;101515.97;4898673;29;20130;-95
2023/03/15 06:08:52;;;;;;;15.52;8.00;;;;;;;1.30;96.89;101531.38;4916151;29;20024;-95
2023/03/15 06:11:17;;;;;;;14.50;7.55;;;;;;;1.28;96.62;101530.38;4899994;29;20478;-95
2023/03/15 06:13:42;;;;;;;15.82;7.97;;;;;;;1.26;97.22;101538.00;4896266;29;20044;-94
2023/03/15 06:16:08;;;;;;;16.10;7.97;;;;;;;1.29;97.62;101538.19;4897855;29;20033;-94
2023/03/15 06:18:33;;;;;;;19.52;9.20;;;;;;;1.28;97.63;101533.84;4914832;29;20031;-94
2023/03/15 06:20:58;;;;;;;16.77;8.27;;;;;;;1.29;97.90;101539.84;4898747;29;20068;-94
2023/03/15 06:23:23;;;;;;;15.88;8.25;;;;;;;1.32;97.97;101541.00;4897383;29;20024;-94
2023/03/15 06:25:49;;;;;;;15.65;8.63;;;;;;;1.35;97.60;101548.03;4898732;29;20031;-93
2023/03/15 06:28:14;;;;;;;14.38;8.00;;;;;;;1.34;96.95;101551.38;4915277;29;20158;-93
2023/03/15 06:30:40;;;;;;;16.15;7.57;;;;;;;1.35;97.30;101566.88;4898453;29;20062;-94
2023/03/15 06:33:05;;;;;;;16.25;8.70;;;;;;;1.32;97.26;101573.47;4898816;29;20027;-93
2023/03/15 06:35:31;;;;;;;18.35;10.18;;;;;;;1.29;97.78;101576.72;4914842;29;20035;-92
2023/03/15 06:37:56;;;;;;;17.30;9.02;;;;;;;1.30;98.19;101575.91;4905026;29;20533;-93
2023/03/15 06:40:21;;;;;;;17.30;8.95;;;;;;;1.26;98.61;101583.28;4915110;29;20035;-93
2023/03/15 06:42:46;;;;;;;16.90;8.00;;;;;;;1.26;98.75;101583.28;4897632;29;20103;-95
2023/03/15 06:45:12;;;;;;;16.42;8.43;;;;;;;1.28;99.59;101577.47;4915463;29;20482;-92
2023/03/15 06:47:37;;;;;;;17.38;8.15;;;;;;;1.34;100.00;101592.44;4897248;29;20035;-95
2023/03/15 06:50:04;;;;;;;16.75;8.27;;;;;;;1.35;100.00;101594.25;4898521;29;20549;-94
2023/03/15 06:52:29;;;;;;;18.05;8.93;;;;;;;1.39;100.00;101609.97;4899371;29;20144;-94
2023/03/15 06:54:54;;;;;;;16.85;8.07;;;;;;;1.45;100.00;101606.97;4915630;29;20107;-94
2023/03/15 06:57:20;;;;;;;18.52;8.77;;;;;;;1.50;100.00;101607.28;4898427;29;20032;-94
2023/03/15 06:59:45;;;;;;;19.17;9.07;;;;;;;1.51;100.00;101607.41;4898794;29;20509;-93
2023/03/15 07:02:16;;;;;;;18.35;9.40;;;;;;;1.53;100.00;101613.53;4898743;29;20394;-94
2023/03/15 07:04:43;;;;;;;18.77;9.38;;;;;;;1.55;100.00;101618.78;4897871;29;20028;-95
2023/03/15 07:07:13;;;;;;;15.75;8.88;;;;;;;1.56;100.00;101620.56;4915385;29;20032;-94
2023/03/15 07:09:38;;;;;;;;;;;;;;;1.62;100.00;101622.69;4914209;29;20047;-95
2023/03/15 07:12:04;;;;;;;16.92;7.93;;;;;;;1.58;100.00;101628.38;4899590;29;19919;-94
2023/03/15 07:14:29;;;;;;;16.70;8.27;;;;;;;1.55;100.00;101635.09;4907445;29;20039;-95
2023/03/15 07:16:55;;;;;;;16.13;8.57;;;;;;;1.58;100.00;101642.13;4898797;29;20099;-95
2023/03/15 07:19:20;;;;;;;18.02;8.75;;;;;;;1.60;100.00;101643.13;4898107;29;20039;-95
2023/03/15 07:21:46;;;;;;;18.08;9.18;;;;;;;1.66;100.00;101658.09;4914980;29;20107;-95
2023/03/15 07:24:11;;;;;;;18.23;9.32;;;;;;;1.70;100.00;101660.09;4898485;29;20087;-95
2023/03/15 07:26:36;;;;;;;17.23;8.95;;;;;;;1.72;100.00;101655.97;4897719;29;20028;-90
2023/03/15 07:29:02;;;;;;;18.15;9.05;;;;;;;1.77;100.00;101662.34;4892737;29;20470;-89
2023/03/15 07:31:27;;;;;;;20.08;9.30;;;;;;;1.84;100.00;101664.56;4910106;29;20138;-90
2023/03/15 07:33:52;;;;;;;16.83;8.65;;;;;;;1.90;100.00;101662.44;4891925;29;20042;-90
2023/03/15 07:36:17;;;;;;;18.60;9.85;;;;;;;1.95;100.00;101667.00;4896855;29;20497;-90
2023/03/15 07:38:43;;;;;;;18.77;9.57;;;;;;;2.00;100.00;101675.94;4914719;29;20032;-89
2023/03/15 07:41:08;;;;;;;20.23;9.27;;;;;;;2.00;100.00;101676.84;4912782;29;20016;-90
2023/03/15 07:43:34;;;;;;;16.70;8.80;;;;;;;2.05;100.00;101684.88;4896451;29;20032;-90
2023/03/15 07:46:00;;;;;;;16.73;8.38;;;;;;;2.08;100.00;101685.97;4914121;29;20036;-90
2023/03/15 07:48:28;;;;;;;17.73;8.68;;;;;;;2.13;100.00;101682.84;4895559;29;20520;-90
2023/03/15 07:50:53;;;;;;;19.13;8.95;;;;;;;2.20;100.00;101688.56;4896496;29;20032;-91
2023/03/15 07:53:18;;;;;;;16.15;8.70;;;;;;;2.28;100.00;101685.63;4914485;29;20553;-89
2023/03/15 07:55:46;;;;;;;15.73;8.48;;;;;;;2.33;100.00;101699.69;4913426;29;20031;-89
2023/03/15 07:58:11;;;;;;;16.80;8.45;;;;;;;2.41;100.00;101696.00;4913219;29;20379;-90
2023/03/15 08:00:37;;;;;;;14.70;8.32;;;;;;;2.48;100.00;101702.44;4896462;29;20067;-90
2023/03/15 08:03:02;;;;;;;15.00;7.80;;;;;;;2.56;100.00;101709.03;4914334;29;20028;-90
2023/03/15 08:05:28;;;;;;;17.50;8.07;;;;;;;2.65;100.00;101709.69;4912322;29;20036;-91
2023/03/15 08:07:53;;;;;;;16.33;8.50;;;;;;;2.75;100.00;101718.91;4912936;29;20040;-89
2023/03/15 08:10:19;;;;;;;13.82;7.30;;;;;;;2.85;100.00;101735.88;4911302;29;20036;-90
2023/03/15 08:12:44;;;;;;;15.32;7.25;;;;;;;2.96;100.00;101740.09;4912984;29;20044;-90
2023/03/15 08:15:11;;;;;;;16.15;7.70;;;;;;;3.10;100.00;101741.03;4914401;29;20047;-90
2023/03/15 08:17:38;;;;;;;15.15;7.40;;;;;;;3.21;100.00;101742.66;4896882;29;20131;-90
2023/03/15 08:20:05;;;;;;;15.75;7.85;;;;;;;3.33;100.00;101747.75;4904863;29;20107;-90
2023/03/15 08:22:30;;;;;;;15.85;7.78;;;;;;;3.44;100.00;101749.34;4895706;29;20020;-90
2023/03/15 08:24:56;;;;;;;15.48;7.07;;;;;;;3.53;99.75;101749.09;4912967;29;20066;-90
2023/03/15 08:27:24;;;;;;;13.88;7.13;;;;;;;3.68;99.56;101750.88;4895113;29;20035;-90
2023/03/15 08:29:50;;;;;;;14.85;6.72;;;;;;;3.82;99.36;101745.88;4911877;29;20028;-90
2023/03/15 08:32:17;;;;;;;12.50;6.32;;;;;;;3.95;98.40;101752.72;4913399;29;20032;-90
2023/03/15 08:34:42;;;;;;;10.68;5.55;;;;;;;4.10;97.92;101763.13;4896254;29;20036;-90
2023/03/15 08:37:09;;;;;;;11.73;5.03;;;;;;;4.20;96.17;101759.47;4911508;29;20513;-91
2023/03/15 08:39:35;;;;;;;13.70;5.25;;;;;;;4.27;95.70;101761.66;4896340;29;20035;-91
2023/03/15 08:42:01;;;;;;;11.27;5.43;;;;;;;4.38;95.82;101769.16;4895950;29;20024;-90
2023/03/15 08:44:29;;;;;;;8.60;4.75;;;;;;;4.48;93.93;101766.38;4912386;29;20035;-94
2023/03/15 08:46:54;;;;;;;9.95;4.95;;;;;;;4.62;94.46;101768.13;4910859;29;20462;-90
2023/03/15 08:49:20;;;;;;;11.18;4.75;;;;;;;4.73;94.45;101773.06;4895669;29;20055;-91
2023/03/15 08:51:45;;;;;;;10.15;4.55;;;;;;;4.78;93.63;101774.22;4911194;29;20058;-91
2023/03/15 08:54:13;;;;;;;9.48;4.15;;;;;;;4.87;93.63;101777.41;4910233;29;20027;-90
2023/03/15 08:56:38;;;;;;;9.32;3.47;;;;;;;4.92;92.38;101785.44;4909768;29;20075;-91
2023/03/15 08:59:06;;;;;;;7.07;3.55;;;;;;;4.89;91.64;101780.97;4897285;29;20126;-96
2023/03/15 09:01:39;;;;;;;7.63;3.38;;;;;;;4.85;91.02;101779.91;4912666;29;20008;-91
2023/03/15 09:04:04;;;;;;;7.93;3.53;;;;;;;4.93;92.50;101777.78;4910627;29;20166;-90
2023/03/15 09:06:30;;;;;;;8.23;3.60;;;;;;;5.01;90.82;101789.47;4909807;29;20550;-91
2023/03/15 09:08:55;;;;;;;7.53;3.78;;;;;;;5.13;91.67;101785.88;4891677;29;20585;-89
2023/03/15 09:11:21;;;;;;;9.88;4.10;;;;;;;5.26;91.13;101782.31;4893337;29;20056;-91
2023/03/15 09:13:47;;;;;;;8.25;3.28;;;;;;;5.42;90.60;101789.28;4908658;29;20028;-91
2023/03/15 09:16:13;;;;;;;9.13;3.17;;;;;;;5.56;88.96;101793.59;4910939;29;20031;-90
2023/03/15 09:18:39;;;;;;;10.43;3.45;;;;;;;5.68;87.38;101790.84;4893089;29;20494;-91
2023/03/15 09:21:05;;;;;;;8.55;3.17;;;;;;;5.78;88.50;101793.19;4911298;29;20031;-90
2023/03/15 09:23:31;;;;;;;8.85;2.30;;;;;;;5.86;84.20;101791.03;4909596;29;20036;-91
2023/03/15 09:25:56;;;;;;;7.18;1.77;;;;;;;5.97;82.25;101787.41;4893268;29;20083;-91
2023/03/15 09:28:24;;;;;;;10.35;2.20;;;;;;;6.13;83.15;101791.75;4893610;29;20095;-91
2023/03/15 09:30:49;;;;;;;7.80;3.00;;;;;;;6.22;80.06;101793.97;4911620;29;20031;-91
2023/03/15 09:33:15;;;;;;;8.48;3.10;;;;;;;6.29;79.66;101785.75;4892453;29;20039;-91
2023/03/15 09:35:41;;;;;;;7.18;3.00;;;;;;;6.37;80.34;101783.59;4892159;29;20031;-90
2023/03/15 09:38:06;;;;;;;7.70;2.92;;;;;;;6.44;81.27;101789.22;4891524;29;20042;-91
2023/03/15 09:40:37;;;;;;;7.53;2.72;;;;;;;6.52;80.97;101788.75;4893878;29;20107;-91
2023/03/15 09:43:06;;;;;;;8.18;2.72;;;;;;;6.58;79.24;101794.25;4892226;29;20032;-91
2023/03/15 09:46:09;;;;;;;7.68;2.70;;;;;;;6.72;79.95;101798.50;4892955;29;20028;-91
2023/03/15 09:48:48;;;;;;;6.00;2.70;;;;;;;6.92;79.52;101802.16;4911130;29;20032;-92
2023/03/15 09:51:16;;;;;;;7.68;2.30;;;;;;;7.10;77.92;101806.56;4909669;29;20067;-91
2023/03/15 09:53:57;;;;;;;8.13;2.13;;;;;;;7.20;75.75;101803.63;4872279;29;1087812;-91
2023/03/15 09:56:27;;;;;;;7.45;3.08;;;;;;;7.11;75.18;101804.03;4908555;29;20036;-91
2023/03/15 09:59:01;;;;;;;8.75;3.05;;;;;;;7.11;78.00;101804.03;4911685;29;20035;-91
2023/03/15 10:01:37;;;;;;;8.52;3.00;;;;;;;7.22;77.45;101809.78;4894106;29;20035;-92
2023/03/15 10:04:23;;;;;;;8.82;2.83;;;;;;;7.26;77.30;101803.06;4888140;29;20035;-91
2023/03/15 10:06:54;;;;;;;8.43;3.40;;;;;;;7.34;76.16;101801.75;4899942;29;20032;-91
2023/03/15 10:09:21;;;;;;;11.93;3.17;;;;;;;7.22;74.56;101802.00;4892472;29;20039;-91
2023/03/15 10:11:50;;;;;;;6.38;2.50;;;;;;;7.06;74.28;101805.47;4893934;29;20067;-91
2023/03/15 10:14:40;;;;;;;12.35;2.78;;;;;;;7.00;74.62;101806.88;4901588;29;20067;-92
2023/03/15 10:17:14;;;;;;;9.23;2.80;;;;;;;7.14;75.58;101803.31;4911164;29;20046;-92
2023/03/15 10:19:52;;;;;;;8.25;2.80;;;;;;;7.15;73.84;101805.06;4893650;29;20497;-92
2023/03/15 10:22:35;;;;;;;8.63;2.85;;;;;;;6.99;73.63;101800.78;4911092;29;20203;-92
2023/03/15 10:25:13;;;;;;;8.23;2.70;;;;;;;6.84;73.13;101808.63;4908194;29;20028;-91
2023/03/15 10:27:47;;;;;;;10.20;2.88;;;;;;;6.92;72.22;101804.75;4889807;29;20083;-91
2023/03/15 10:30:18;;;;;;;8.73;2.63;;;;;;;7.11;72.54;101810.91;4894083;29;20036;-92
2023/03/15 10:32:50;;;;;;;8.68;2.58;;;;;;;7.24;70.28;101812.44;4910721;29;20089;-92
2023/03/15 10:35:17;;;;;;;7.18;2.22;;;;;;;7.34;69.96;101806.94;4909470;29;20024;-91
2023/03/15 10:37:43;;;;;;;9.02;2.50;;;;;;;7.59;72.59;101808.19;4901431;29;20422;-92
2023/03/15 10:40:14;;;;;;;6.32;2.03;;;;;;;7.88;68.07;101804.50;4899289;29;20032;-91
2023/03/15 10:42:43;;;;;;;7.50;2.42;;;;;;;8.16;67.51;101816.25;4911020;29;20020;-92
2023/03/15 10:45:21;;;;;;;8.15;2.00;;;;;;;8.44;69.76;101804.59;4893673;29;20054;-92
2023/03/15 10:47:48;;;;;;;9.43;2.57;;;;;;;8.62;65.55;101813.31;4911191;29;20036;-92
2023/03/15 10:50:28;;;;;;;6.20;1.85;;;;;;;8.69;65.03;101814.50;4890275;29;20035;-91
2023/03/15 10:52:57;;;;;;;10.27;2.17;;;;;;;8.58;65.11;101819.16;4903349;29;20059;-92
2023/03/15 10:55:34;;;;;;;6.57;2.22;;;;;;;8.45;68.01;101822.00;4899473;29;20662;-91
2023/03/15 10:58:19;;;;;;;9.45;2.58;;;;;;;8.28;67.85;101827.22;4880928;29;20123;-92
2023/03/15 11:00:51;;;;;;;7.47;1.95;;;;;;;8.29;67.77;101836.78;4883862;29;20115;-92
2023/03/15 11:03:24;;;;;;;7.97;2.20;;;;;;;8.47;65.04;101831.66;4882415;29;20020;-92
2023/03/15 11:05:52;;;;;;;6.35;2.03;;;;;;;8.53;61.69;101831.94;4899179;29;20031;-92
2023/03/15 11:08:23;;;;;;;4.85;1.77;;;;;;;8.79;67.71;101829.69;4896898;29;20050;-91
2023/03/15 11:10:57;;;;;;;4.68;1.50;;;;;;;8.99;61.19;101833.22;4900408;29;20028;-93
2023/03/15 11:13:26;;;;;;;7.50;1.60;;;;;;;9.20;61.10;101832.41;4899447;29;20667;-92
2023/03/15 11:15:56;;;;;;;7.15;1.70;;;;;;;9.36;61.12;101836.59;4881216;29;20028;-94
2023/03/15 11:18:29;;;;;;;7.13;1.63;;;;;;;9.52;62.28;101841.63;4900461;29;20032;-92
2023/03/15 11:20:56;;;;;;;5.00;1.60;;;;;;;9.78;62.98;101846.22;4881769;29;20114;-93
2023/03/15 11:23:30;;;;;;;5.53;1.40;;;;;;;9.95;60.02;101849.50;4883403;29;20031;-92
2023/03/15 11:26:00;;;;;;;5.53;1.45;;;;;;;10.03;58.30;101850.72;4895164;29;20100;-92